Ana Sayfa
METAR-TAF:

METAR-TAF

Havaalanları :

Minna, Nijerya

Enlem: 9-37N, Boylam: 6-32E, yükseklik: 260 m

Güncel hava durumu gözlemi

Rapor saat 07:00 UTC de 4 saat ve 49 dakika önce yapıldı.
Rüzgar kuzeydoğudan 19 kt
Sıcaklık 24°C
Nem 27%
Basınç 1014 hPa
Görüş mesafesi: 3500 m
Toz Pusu

METAR: DNMN 220700Z 04019KT 3500 HZ NSC 24/04 Q1014

Saat: 12:49 (11:49 UTC)

Tahmin

Rapor saat 05:00 UTC de 6 saat ve 49 dakika önce yapıldı.
Ayın 22'si saat 06 UTC'den ayın 23'si saat 12 UTC'ye kadar geçerli Tahmin
Rüzgar doğudan 16 kt
Görüş mesafesi: 2500 m
Toz Pusu
Olasılık 30% :
Geçici
ayın 22'si saat 06 UTC'den ayın 22'si saat 09 UTC'ye kadar
Rüzgar kuzey/kuzeydoğudan 5 kt
Görüş mesafesi: 1000 m
yaygın toz

TAF: DNMN 220500Z 2206/2312 08016KT 2500 HZ NSC PROB30 TEMPO 2206/2209 02005KT 1000 DU

4.000'den fazla havaalanı için hava durumu gözlemleri ve tahminleri (METAR ve TAF raporları).

Kullanılabilir istasyonlar harita üzerinde sarı ve kırmızı noktalarla gösterilir.

İstasyonun adını görmek için fareyi noktanın üzerinde gezdirin.

Sonrasında hava gözlem ve tahminlerini görmek için tıklayın.

Haritayı değiştirmek için: yaklaştırmak için siyah artı işaretli yeşil düğmeye ve uzaklaştırmak için de eksi işaretli düğmeye hızla tıklayın; bitişik haritalar için yeşil okları kullanın.


METAR-TAF: